sensor_id;sensor_type;location;lat;lon;timestamp;P1;durP1;ratioP1;P2;durP2;ratioP2
24161;SDS011;12318;51.262;7.066;2023-03-29T00:00:30;9.85;;;4.20;;
24161;SDS011;12318;51.262;7.066;2023-03-29T00:02:56;10.15;;;4.00;;
24161;SDS011;12318;51.262;7.066;2023-03-29T00:05:23;5.90;;;3.95;;
24161;SDS011;12318;51.262;7.066;2023-03-29T00:07:49;9.32;;;4.45;;
24161;SDS011;12318;51.262;7.066;2023-03-29T00:10:20;7.32;;;3.92;;
24161;SDS011;12318;51.262;7.066;2023-03-29T00:12:48;8.23;;;4.15;;
24161;SDS011;12318;51.262;7.066;2023-03-29T00:15:16;12.68;;;4.35;;
24161;SDS011;12318;51.262;7.066;2023-03-29T00:17:42;10.18;;;4.13;;
24161;SDS011;12318;51.262;7.066;2023-03-29T00:20:08;8.10;;;4.07;;
24161;SDS011;12318;51.262;7.066;2023-03-29T00:22:37;10.60;;;4.70;;
24161;SDS011;12318;51.262;7.066;2023-03-29T00:27:32;10.63;;;4.28;;
24161;SDS011;12318;51.262;7.066;2023-03-29T00:29:58;9.52;;;4.65;;
24161;SDS011;12318;51.262;7.066;2023-03-29T00:32:24;9.73;;;4.45;;
24161;SDS011;12318;51.262;7.066;2023-03-29T00:34:50;8.60;;;3.70;;
24161;SDS011;12318;51.262;7.066;2023-03-29T00:37:16;7.40;;;4.07;;
24161;SDS011;12318;51.262;7.066;2023-03-29T00:39:43;6.65;;;3.60;;
24161;SDS011;12318;51.262;7.066;2023-03-29T00:42:13;9.27;;;4.00;;
24161;SDS011;12318;51.262;7.066;2023-03-29T00:47:18;6.28;;;3.60;;
24161;SDS011;12318;51.262;7.066;2023-03-29T00:49:50;7.30;;;3.78;;
24161;SDS011;12318;51.262;7.066;2023-03-29T00:52:18;8.88;;;4.00;;
24161;SDS011;12318;51.262;7.066;2023-03-29T00:54:46;6.63;;;3.50;;
24161;SDS011;12318;51.262;7.066;2023-03-29T00:57:17;8.38;;;3.60;;
24161;SDS011;12318;51.262;7.066;2023-03-29T00:59:44;8.77;;;3.35;;
24161;SDS011;12318;51.262;7.066;2023-03-29T01:02:10;7.80;;;3.70;;
24161;SDS011;12318;51.262;7.066;2023-03-29T01:09:38;9.80;;;3.63;;
24161;SDS011;12318;51.262;7.066;2023-03-29T01:12:12;6.95;;;3.40;;
24161;SDS011;12318;51.262;7.066;2023-03-29T01:17:18;7.32;;;3.00;;
24161;SDS011;12318;51.262;7.066;2023-03-29T01:20:01;7.15;;;3.45;;
24161;SDS011;12318;51.262;7.066;2023-03-29T01:25:28;6.97;;;2.92;;
24161;SDS011;12318;51.262;7.066;2023-03-29T01:27:59;10.75;;;3.63;;
24161;SDS011;12318;51.262;7.066;2023-03-29T01:30:48;8.48;;;2.97;;
24161;SDS011;12318;51.262;7.066;2023-03-29T01:33:26;6.53;;;3.08;;
24161;SDS011;12318;51.262;7.066;2023-03-29T01:36:06;9.25;;;3.72;;
24161;SDS011;12318;51.262;7.066;2023-03-29T01:38:42;7.70;;;3.47;;
24161;SDS011;12318;51.262;7.066;2023-03-29T01:41:17;6.80;;;3.30;;
24161;SDS011;12318;51.262;7.066;2023-03-29T01:52:04;6.30;;;3.35;;
24161;SDS011;12318;51.262;7.066;2023-03-29T01:54:36;8.02;;;3.40;;
24161;SDS011;12318;51.262;7.066;2023-03-29T01:57:07;8.50;;;3.30;;
24161;SDS011;12318;51.262;7.066;2023-03-29T01:59:37;5.68;;;3.38;;
24161;SDS011;12318;51.262;7.066;2023-03-29T02:02:07;6.03;;;3.50;;
24161;SDS011;12318;51.262;7.066;2023-03-29T02:04:39;6.88;;;3.50;;
24161;SDS011;12318;51.262;7.066;2023-03-29T02:07:12;6.30;;;3.10;;
24161;SDS011;12318;51.262;7.066;2023-03-29T02:09:41;5.05;;;3.10;;
24161;SDS011;12318;51.262;7.066;2023-03-29T02:12:09;5.97;;;3.00;;
24161;SDS011;12318;51.262;7.066;2023-03-29T02:14:36;8.27;;;3.38;;
24161;SDS011;12318;51.262;7.066;2023-03-29T02:19:56;8.13;;;3.15;;
24161;SDS011;12318;51.262;7.066;2023-03-29T02:22:25;4.40;;;2.88;;
24161;SDS011;12318;51.262;7.066;2023-03-29T02:25:01;5.38;;;3.25;;
24161;SDS011;12318;51.262;7.066;2023-03-29T02:27:28;9.40;;;3.80;;
24161;SDS011;12318;51.262;7.066;2023-03-29T02:29:55;4.53;;;2.83;;
24161;SDS011;12318;51.262;7.066;2023-03-29T02:32:27;5.70;;;3.08;;
24161;SDS011;12318;51.262;7.066;2023-03-29T02:35:03;9.30;;;3.53;;
24161;SDS011;12318;51.262;7.066;2023-03-29T02:37:38;6.82;;;2.97;;
24161;SDS011;12318;51.262;7.066;2023-03-29T02:40:08;9.35;;;3.40;;
24161;SDS011;12318;51.262;7.066;2023-03-29T02:42:37;10.20;;;3.70;;
24161;SDS011;12318;51.262;7.066;2023-03-29T02:45:04;7.10;;;3.67;;
24161;SDS011;12318;51.262;7.066;2023-03-29T02:47:34;4.80;;;2.90;;
24161;SDS011;12318;51.262;7.066;2023-03-29T02:50:05;7.07;;;3.35;;
24161;SDS011;12318;51.262;7.066;2023-03-29T02:52:33;5.93;;;3.10;;
24161;SDS011;12318;51.262;7.066;2023-03-29T02:55:04;7.03;;;2.97;;
24161;SDS011;12318;51.262;7.066;2023-03-29T02:57:35;7.05;;;3.47;;
24161;SDS011;12318;51.262;7.066;2023-03-29T03:00:03;7.00;;;3.35;;
24161;SDS011;12318;51.262;7.066;2023-03-29T03:02:35;6.18;;;2.85;;
24161;SDS011;12318;51.262;7.066;2023-03-29T03:05:04;6.38;;;3.03;;
24161;SDS011;12318;51.262;7.066;2023-03-29T03:07:30;8.02;;;3.50;;
24161;SDS011;12318;51.262;7.066;2023-03-29T03:09:57;7.07;;;3.22;;
24161;SDS011;12318;51.262;7.066;2023-03-29T03:12:23;6.63;;;3.33;;
24161;SDS011;12318;51.262;7.066;2023-03-29T03:14:52;8.27;;;3.47;;
24161;SDS011;12318;51.262;7.066;2023-03-29T03:17:18;7.90;;;3.25;;
24161;SDS011;12318;51.262;7.066;2023-03-29T03:19:44;5.00;;;3.33;;
24161;SDS011;12318;51.262;7.066;2023-03-29T03:22:10;8.13;;;3.28;;
24161;SDS011;12318;51.262;7.066;2023-03-29T03:24:36;6.15;;;3.38;;
24161;SDS011;12318;51.262;7.066;2023-03-29T03:27:02;7.53;;;3.70;;
24161;SDS011;12318;51.262;7.066;2023-03-29T03:29:29;7.15;;;3.03;;
24161;SDS011;12318;51.262;7.066;2023-03-29T03:31:54;7.18;;;3.15;;
24161;SDS011;12318;51.262;7.066;2023-03-29T03:34:21;6.97;;;3.20;;
24161;SDS011;12318;51.262;7.066;2023-03-29T03:36:47;6.45;;;3.00;;
24161;SDS011;12318;51.262;7.066;2023-03-29T03:39:12;6.38;;;3.53;;
24161;SDS011;12318;51.262;7.066;2023-03-29T03:41:38;6.13;;;2.80;;
24161;SDS011;12318;51.262;7.066;2023-03-29T03:44:04;5.65;;;2.97;;
24161;SDS011;12318;51.262;7.066;2023-03-29T03:46:30;8.23;;;3.30;;
24161;SDS011;12318;51.262;7.066;2023-03-29T03:48:56;6.07;;;3.13;;
24161;SDS011;12318;51.262;7.066;2023-03-29T03:51:23;6.70;;;3.15;;
24161;SDS011;12318;51.262;7.066;2023-03-29T03:53:49;6.65;;;3.30;;
24161;SDS011;12318;51.262;7.066;2023-03-29T03:56:15;6.60;;;3.35;;
24161;SDS011;12318;51.262;7.066;2023-03-29T03:58:42;8.38;;;3.47;;
24161;SDS011;12318;51.262;7.066;2023-03-29T04:01:07;8.68;;;3.60;;
24161;SDS011;12318;51.262;7.066;2023-03-29T04:03:33;8.93;;;3.30;;
24161;SDS011;12318;51.262;7.066;2023-03-29T04:06:00;7.05;;;3.30;;
24161;SDS011;12318;51.262;7.066;2023-03-29T04:08:27;7.72;;;3.30;;
24161;SDS011;12318;51.262;7.066;2023-03-29T04:10:54;6.10;;;2.75;;
24161;SDS011;12318;51.262;7.066;2023-03-29T04:13:20;6.72;;;3.30;;
24161;SDS011;12318;51.262;7.066;2023-03-29T04:15:47;8.43;;;3.20;;
24161;SDS011;12318;51.262;7.066;2023-03-29T04:18:20;7.32;;;3.15;;
24161;SDS011;12318;51.262;7.066;2023-03-29T04:20:47;7.93;;;3.30;;
24161;SDS011;12318;51.262;7.066;2023-03-29T04:23:14;9.45;;;3.20;;
24161;SDS011;12318;51.262;7.066;2023-03-29T04:25:39;10.30;;;3.95;;
24161;SDS011;12318;51.262;7.066;2023-03-29T04:28:05;8.10;;;3.40;;
24161;SDS011;12318;51.262;7.066;2023-03-29T04:30:32;7.50;;;3.22;;
24161;SDS011;12318;51.262;7.066;2023-03-29T04:32:58;9.00;;;3.63;;
24161;SDS011;12318;51.262;7.066;2023-03-29T04:35:23;9.52;;;3.50;;
24161;SDS011;12318;51.262;7.066;2023-03-29T04:37:49;5.82;;;3.63;;
24161;SDS011;12318;51.262;7.066;2023-03-29T04:40:16;10.30;;;3.50;;
24161;SDS011;12318;51.262;7.066;2023-03-29T04:42:43;10.57;;;4.18;;
24161;SDS011;12318;51.262;7.066;2023-03-29T04:45:12;6.47;;;3.30;;
24161;SDS011;12318;51.262;7.066;2023-03-29T04:47:41;7.13;;;3.83;;
24161;SDS011;12318;51.262;7.066;2023-03-29T04:50:09;11.25;;;4.05;;
24161;SDS011;12318;51.262;7.066;2023-03-29T04:52:35;9.32;;;4.63;;
24161;SDS011;12318;51.262;7.066;2023-03-29T04:55:02;9.18;;;4.70;;
24161;SDS011;12318;51.262;7.066;2023-03-29T04:57:28;14.30;;;5.80;;
24161;SDS011;12318;51.262;7.066;2023-03-29T04:59:55;10.55;;;5.40;;
24161;SDS011;12318;51.262;7.066;2023-03-29T05:02:20;10.70;;;6.15;;
24161;SDS011;12318;51.262;7.066;2023-03-29T05:04:47;11.20;;;6.55;;
24161;SDS011;12318;51.262;7.066;2023-03-29T05:07:14;14.50;;;7.40;;
24161;SDS011;12318;51.262;7.066;2023-03-29T05:09:41;12.93;;;7.35;;
24161;SDS011;12318;51.262;7.066;2023-03-29T05:12:07;14.68;;;8.07;;
24161;SDS011;12318;51.262;7.066;2023-03-29T05:14:33;19.25;;;8.32;;
24161;SDS011;12318;51.262;7.066;2023-03-29T05:16:59;12.35;;;8.32;;
24161;SDS011;12318;51.262;7.066;2023-03-29T05:19:25;20.30;;;9.40;;
24161;SDS011;12318;51.262;7.066;2023-03-29T05:21:51;17.15;;;8.95;;
24161;SDS011;12318;51.262;7.066;2023-03-29T05:24:18;13.80;;;8.50;;
24161;SDS011;12318;51.262;7.066;2023-03-29T05:26:44;18.90;;;9.43;;
24161;SDS011;12318;51.262;7.066;2023-03-29T05:29:12;16.73;;;8.82;;
24161;SDS011;12318;51.262;7.066;2023-03-29T05:31:38;18.95;;;8.48;;
24161;SDS011;12318;51.262;7.066;2023-03-29T05:34:04;17.10;;;8.52;;
24161;SDS011;12318;51.262;7.066;2023-03-29T05:36:31;11.90;;;7.95;;
24161;SDS011;12318;51.262;7.066;2023-03-29T05:38:57;17.42;;;8.07;;
24161;SDS011;12318;51.262;7.066;2023-03-29T05:41:27;9.25;;;7.00;;
24161;SDS011;12318;51.262;7.066;2023-03-29T05:43:53;17.15;;;7.57;;
24161;SDS011;12318;51.262;7.066;2023-03-29T05:46:19;17.48;;;7.60;;
24161;SDS011;12318;51.262;7.066;2023-03-29T05:48:44;15.98;;;8.25;;
24161;SDS011;12318;51.262;7.066;2023-03-29T05:51:11;13.52;;;7.85;;
24161;SDS011;12318;51.262;7.066;2023-03-29T05:53:37;12.27;;;6.82;;
24161;SDS011;12318;51.262;7.066;2023-03-29T05:56:06;20.40;;;8.13;;
24161;SDS011;12318;51.262;7.066;2023-03-29T05:58:32;13.18;;;7.38;;
24161;SDS011;12318;51.262;7.066;2023-03-29T06:00:58;13.90;;;7.78;;
24161;SDS011;12318;51.262;7.066;2023-03-29T06:03:43;13.88;;;7.53;;
24161;SDS011;12318;51.262;7.066;2023-03-29T06:06:10;13.60;;;6.78;;
24161;SDS011;12318;51.262;7.066;2023-03-29T06:11:44;13.82;;;6.85;;
24161;SDS011;12318;51.262;7.066;2023-03-29T06:14:20;15.75;;;6.57;;
24161;SDS011;12318;51.262;7.066;2023-03-29T06:16:51;11.73;;;6.15;;
24161;SDS011;12318;51.262;7.066;2023-03-29T06:22:23;13.18;;;6.85;;
24161;SDS011;12318;51.262;7.066;2023-03-29T06:31:00;12.52;;;5.75;;
24161;SDS011;12318;51.262;7.066;2023-03-29T06:33:34;12.25;;;5.97;;
24161;SDS011;12318;51.262;7.066;2023-03-29T06:36:17;11.35;;;4.47;;
24161;SDS011;12318;51.262;7.066;2023-03-29T06:39:21;11.65;;;5.82;;
24161;SDS011;12318;51.262;7.066;2023-03-29T06:41:58;10.40;;;4.72;;
24161;SDS011;12318;51.262;7.066;2023-03-29T06:44:24;9.30;;;4.35;;
24161;SDS011;12318;51.262;7.066;2023-03-29T06:46:52;7.30;;;4.60;;
24161;SDS011;12318;51.262;7.066;2023-03-29T06:49:18;8.90;;;4.45;;
24161;SDS011;12318;51.262;7.066;2023-03-29T06:51:50;8.70;;;4.82;;
24161;SDS011;12318;51.262;7.066;2023-03-29T06:54:46;13.70;;;4.45;;
24161;SDS011;12318;51.262;7.066;2023-03-29T06:57:28;11.85;;;4.43;;
24161;SDS011;12318;51.262;7.066;2023-03-29T06:59:57;13.73;;;4.57;;
24161;SDS011;12318;51.262;7.066;2023-03-29T07:02:22;8.32;;;4.47;;
24161;SDS011;12318;51.262;7.066;2023-03-29T07:04:55;8.32;;;4.50;;
24161;SDS011;12318;51.262;7.066;2023-03-29T07:07:44;8.77;;;4.10;;
24161;SDS011;12318;51.262;7.066;2023-03-29T07:10:54;9.70;;;3.65;;
24161;SDS011;12318;51.262;7.066;2023-03-29T07:13:22;7.97;;;3.92;;
24161;SDS011;12318;51.262;7.066;2023-03-29T07:16:17;13.10;;;4.07;;
24161;SDS011;12318;51.262;7.066;2023-03-29T07:18:52;8.02;;;4.07;;
24161;SDS011;12318;51.262;7.066;2023-03-29T07:21:19;8.63;;;4.25;;
24161;SDS011;12318;51.262;7.066;2023-03-29T07:23:53;9.57;;;3.75;;
24161;SDS011;12318;51.262;7.066;2023-03-29T07:26:19;6.85;;;4.13;;
24161;SDS011;12318;51.262;7.066;2023-03-29T07:28:44;11.35;;;3.88;;
24161;SDS011;12318;51.262;7.066;2023-03-29T07:31:19;6.82;;;3.20;;
24161;SDS011;12318;51.262;7.066;2023-03-29T07:33:47;6.90;;;2.88;;
24161;SDS011;12318;51.262;7.066;2023-03-29T07:36:18;12.60;;;3.63;;
24161;SDS011;12318;51.262;7.066;2023-03-29T07:38:50;8.85;;;3.40;;
24161;SDS011;12318;51.262;7.066;2023-03-29T07:41:16;8.48;;;3.35;;
24161;SDS011;12318;51.262;7.066;2023-03-29T07:43:45;6.85;;;3.20;;
24161;SDS011;12318;51.262;7.066;2023-03-29T07:46:11;8.98;;;3.30;;
24161;SDS011;12318;51.262;7.066;2023-03-29T07:48:36;4.88;;;2.80;;
24161;SDS011;12318;51.262;7.066;2023-03-29T07:51:03;7.57;;;2.80;;
24161;SDS011;12318;51.262;7.066;2023-03-29T07:53:32;7.15;;;3.10;;
24161;SDS011;12318;51.262;7.066;2023-03-29T07:55:57;9.07;;;3.47;;
24161;SDS011;12318;51.262;7.066;2023-03-29T07:58:24;7.53;;;3.38;;
24161;SDS011;12318;51.262;7.066;2023-03-29T08:00:52;7.32;;;3.80;;
24161;SDS011;12318;51.262;7.066;2023-03-29T08:03:18;9.20;;;3.75;;
24161;SDS011;12318;51.262;7.066;2023-03-29T08:05:43;8.80;;;3.38;;
24161;SDS011;12318;51.262;7.066;2023-03-29T08:08:09;6.85;;;3.47;;
24161;SDS011;12318;51.262;7.066;2023-03-29T08:10:40;9.15;;;3.38;;
24161;SDS011;12318;51.262;7.066;2023-03-29T08:13:07;5.35;;;2.88;;
24161;SDS011;12318;51.262;7.066;2023-03-29T08:15:36;8.35;;;3.30;;
24161;SDS011;12318;51.262;7.066;2023-03-29T08:18:04;11.57;;;3.00;;
24161;SDS011;12318;51.262;7.066;2023-03-29T08:20:31;7.63;;;3.50;;
24161;SDS011;12318;51.262;7.066;2023-03-29T08:22:57;8.07;;;4.00;;
24161;SDS011;12318;51.262;7.066;2023-03-29T08:25:23;6.18;;;3.50;;
24161;SDS011;12318;51.262;7.066;2023-03-29T08:27:51;9.50;;;3.92;;
24161;SDS011;12318;51.262;7.066;2023-03-29T08:30:37;7.13;;;3.75;;
24161;SDS011;12318;51.262;7.066;2023-03-29T08:33:24;7.57;;;3.80;;
24161;SDS011;12318;51.262;7.066;2023-03-29T08:35:57;17.02;;;4.57;;
24161;SDS011;12318;51.262;7.066;2023-03-29T08:38:27;7.78;;;3.70;;
24161;SDS011;12318;51.262;7.066;2023-03-29T08:40:56;8.27;;;3.97;;
24161;SDS011;12318;51.262;7.066;2023-03-29T08:46:10;11.93;;;4.22;;
24161;SDS011;12318;51.262;7.066;2023-03-29T08:48:58;6.53;;;3.45;;
24161;SDS011;12318;51.262;7.066;2023-03-29T08:51:50;10.73;;;3.67;;
24161;SDS011;12318;51.262;7.066;2023-03-29T08:54:23;9.25;;;3.83;;
24161;SDS011;12318;51.262;7.066;2023-03-29T08:57:10;7.35;;;3.35;;
24161;SDS011;12318;51.262;7.066;2023-03-29T08:59:49;8.75;;;3.65;;
24161;SDS011;12318;51.262;7.066;2023-03-29T09:02:50;7.18;;;3.63;;
24161;SDS011;12318;51.262;7.066;2023-03-29T09:05:34;10.50;;;3.90;;
24161;SDS011;12318;51.262;7.066;2023-03-29T09:08:14;8.27;;;3.50;;
24161;SDS011;12318;51.262;7.066;2023-03-29T09:16:41;5.78;;;3.42;;
24161;SDS011;12318;51.262;7.066;2023-03-29T09:33:27;7.50;;;3.38;;
24161;SDS011;12318;51.262;7.066;2023-03-29T09:36:14;7.65;;;3.38;;
24161;SDS011;12318;51.262;7.066;2023-03-29T09:39:01;8.32;;;3.28;;
24161;SDS011;12318;51.262;7.066;2023-03-29T09:41:29;5.53;;;3.10;;
24161;SDS011;12318;51.262;7.066;2023-03-29T09:46:37;7.35;;;3.08;;
24161;SDS011;12318;51.262;7.066;2023-03-29T09:49:08;7.90;;;3.33;;
24161;SDS011;12318;51.262;7.066;2023-03-29T09:51:39;10.80;;;3.15;;
24161;SDS011;12318;51.262;7.066;2023-03-29T09:54:08;10.25;;;2.92;;
24161;SDS011;12318;51.262;7.066;2023-03-29T09:56:37;8.52;;;3.00;;
24161;SDS011;12318;51.262;7.066;2023-03-29T09:59:03;10.25;;;3.13;;
24161;SDS011;12318;51.262;7.066;2023-03-29T10:01:36;7.28;;;3.28;;
24161;SDS011;12318;51.262;7.066;2023-03-29T10:04:07;7.80;;;2.90;;
24161;SDS011;12318;51.262;7.066;2023-03-29T10:06:34;7.28;;;3.58;;
24161;SDS011;12318;51.262;7.066;2023-03-29T10:09:01;7.07;;;3.20;;
24161;SDS011;12318;51.262;7.066;2023-03-29T10:11:34;10.23;;;3.40;;
24161;SDS011;12318;51.262;7.066;2023-03-29T10:14:27;11.80;;;3.38;;
24161;SDS011;12318;51.262;7.066;2023-03-29T10:22:18;7.50;;;3.53;;
24161;SDS011;12318;51.262;7.066;2023-03-29T10:24:49;7.22;;;2.92;;
24161;SDS011;12318;51.262;7.066;2023-03-29T10:27:18;6.78;;;3.15;;
24161;SDS011;12318;51.262;7.066;2023-03-29T10:29:47;7.30;;;3.55;;
24161;SDS011;12318;51.262;7.066;2023-03-29T10:35:04;8.20;;;3.35;;
24161;SDS011;12318;51.262;7.066;2023-03-29T10:37:38;6.35;;;2.90;;
24161;SDS011;12318;51.262;7.066;2023-03-29T10:40:17;8.60;;;3.38;;
24161;SDS011;12318;51.262;7.066;2023-03-29T10:43:41;8.50;;;3.30;;
24161;SDS011;12318;51.262;7.066;2023-03-29T10:45:46;11.75;;;3.50;;
24161;SDS011;12318;51.262;7.066;2023-03-29T10:48:13;8.65;;;3.40;;
24161;SDS011;12318;51.262;7.066;2023-03-29T10:50:41;9.70;;;3.60;;
24161;SDS011;12318;51.262;7.066;2023-03-29T10:53:22;7.90;;;3.65;;
24161;SDS011;12318;51.262;7.066;2023-03-29T10:55:54;13.93;;;3.25;;
24161;SDS011;12318;51.262;7.066;2023-03-29T11:13:04;11.82;;;3.05;;
24161;SDS011;12318;51.262;7.066;2023-03-29T11:18:39;8.57;;;3.08;;
24161;SDS011;12318;51.262;7.066;2023-03-29T11:24:26;7.60;;;2.80;;
24161;SDS011;12318;51.262;7.066;2023-03-29T11:27:30;6.53;;;2.65;;
24161;SDS011;12318;51.262;7.066;2023-03-29T11:36:08;16.05;;;3.53;;
24161;SDS011;12318;51.262;7.066;2023-03-29T11:41:29;6.65;;;2.80;;
24161;SDS011;12318;51.262;7.066;2023-03-29T11:47:12;9.32;;;3.30;;
24161;SDS011;12318;51.262;7.066;2023-03-29T11:49:52;12.23;;;3.08;;
24161;SDS011;12318;51.262;7.066;2023-03-29T11:57:53;7.35;;;3.00;;
24161;SDS011;12318;51.262;7.066;2023-03-29T12:00:34;5.60;;;2.85;;
24161;SDS011;12318;51.262;7.066;2023-03-29T12:05:46;10.93;;;3.40;;
24161;SDS011;12318;51.262;7.066;2023-03-29T12:16:51;5.80;;;2.75;;
24161;SDS011;12318;51.262;7.066;2023-03-29T12:19:30;8.48;;;3.13;;
24161;SDS011;12318;51.262;7.066;2023-03-29T12:22:00;12.23;;;2.90;;
24161;SDS011;12318;51.262;7.066;2023-03-29T12:24:34;12.43;;;3.38;;
24161;SDS011;12318;51.262;7.066;2023-03-29T12:27:15;7.35;;;3.08;;
24161;SDS011;12318;51.262;7.066;2023-03-29T12:38:36;7.25;;;2.92;;
24161;SDS011;12318;51.262;7.066;2023-03-29T12:41:26;11.23;;;3.22;;
24161;SDS011;12318;51.262;7.066;2023-03-29T12:43:59;10.82;;;3.40;;
24161;SDS011;12318;51.262;7.066;2023-03-29T12:46:26;10.00;;;3.72;;
24161;SDS011;12318;51.262;7.066;2023-03-29T12:51:51;9.18;;;3.20;;
24161;SDS011;12318;51.262;7.066;2023-03-29T12:54:22;12.95;;;3.17;;
24161;SDS011;12318;51.262;7.066;2023-03-29T13:04:49;6.57;;;2.95;;
24161;SDS011;12318;51.262;7.066;2023-03-29T13:12:24;8.85;;;3.03;;
24161;SDS011;12318;51.262;7.066;2023-03-29T13:23:27;9.10;;;2.88;;
24161;SDS011;12318;51.262;7.066;2023-03-29T13:37:54;7.43;;;2.75;;
24161;SDS011;12318;51.262;7.066;2023-03-29T13:40:43;8.43;;;2.83;;
24161;SDS011;12318;51.262;7.066;2023-03-29T13:43:31;6.35;;;3.10;;
24161;SDS011;12318;51.262;7.066;2023-03-29T13:48:44;9.38;;;2.67;;
24161;SDS011;12318;51.262;7.066;2023-03-29T13:51:47;10.82;;;2.60;;
24161;SDS011;12318;51.262;7.066;2023-03-29T13:59:59;7.32;;;2.38;;
24161;SDS011;12318;51.262;7.066;2023-03-29T14:02:59;4.25;;;1.95;;
24161;SDS011;12318;51.262;7.066;2023-03-29T14:05:31;6.32;;;2.35;;
24161;SDS011;12318;51.262;7.066;2023-03-29T14:08:42;6.03;;;2.30;;
24161;SDS011;12318;51.262;7.066;2023-03-29T14:10:54;6.00;;;2.22;;
24161;SDS011;12318;51.262;7.066;2023-03-29T14:13:21;10.02;;;2.40;;
24161;SDS011;12318;51.262;7.066;2023-03-29T14:15:52;6.80;;;2.00;;
24161;SDS011;12318;51.262;7.066;2023-03-29T14:18:21;5.80;;;1.90;;
24161;SDS011;12318;51.262;7.066;2023-03-29T14:20:50;6.88;;;2.10;;
24161;SDS011;12318;51.262;7.066;2023-03-29T14:23:20;5.07;;;1.80;;
24161;SDS011;12318;51.262;7.066;2023-03-29T14:25:51;4.95;;;1.58;;
24161;SDS011;12318;51.262;7.066;2023-03-29T14:28:26;3.55;;;1.80;;
24161;SDS011;12318;51.262;7.066;2023-03-29T14:30:53;8.88;;;1.92;;
24161;SDS011;12318;51.262;7.066;2023-03-29T14:33:38;4.68;;;1.60;;
24161;SDS011;12318;51.262;7.066;2023-03-29T14:36:03;6.97;;;1.80;;
24161;SDS011;12318;51.262;7.066;2023-03-29T14:38:30;3.65;;;1.40;;
24161;SDS011;12318;51.262;7.066;2023-03-29T14:40:59;7.03;;;1.65;;
24161;SDS011;12318;51.262;7.066;2023-03-29T14:43:26;6.18;;;2.00;;
24161;SDS011;12318;51.262;7.066;2023-03-29T14:45:56;5.25;;;1.60;;
24161;SDS011;12318;51.262;7.066;2023-03-29T14:48:22;8.18;;;1.77;;
24161;SDS011;12318;51.262;7.066;2023-03-29T14:50:49;6.00;;;1.80;;
24161;SDS011;12318;51.262;7.066;2023-03-29T14:53:16;7.22;;;2.00;;
24161;SDS011;12318;51.262;7.066;2023-03-29T14:55:44;7.13;;;1.90;;
24161;SDS011;12318;51.262;7.066;2023-03-29T14:58:20;10.02;;;1.85;;
24161;SDS011;12318;51.262;7.066;2023-03-29T15:00:49;7.93;;;1.48;;
24161;SDS011;12318;51.262;7.066;2023-03-29T15:03:16;5.88;;;1.73;;
24161;SDS011;12318;51.262;7.066;2023-03-29T15:05:46;10.68;;;1.90;;
24161;SDS011;12318;51.262;7.066;2023-03-29T15:08:17;9.82;;;1.77;;
24161;SDS011;12318;51.262;7.066;2023-03-29T15:10:52;6.28;;;1.60;;
24161;SDS011;12318;51.262;7.066;2023-03-29T15:13:18;6.60;;;1.50;;
24161;SDS011;12318;51.262;7.066;2023-03-29T15:15:49;7.50;;;1.50;;
24161;SDS011;12318;51.262;7.066;2023-03-29T15:18:21;4.40;;;1.30;;
24161;SDS011;12318;51.262;7.066;2023-03-29T15:20:52;3.97;;;1.50;;
24161;SDS011;12318;51.262;7.066;2023-03-29T15:23:23;5.03;;;1.55;;
24161;SDS011;12318;51.262;7.066;2023-03-29T15:31:31;4.25;;;1.45;;
24161;SDS011;12318;51.262;7.066;2023-03-29T15:34:05;7.07;;;1.50;;
24161;SDS011;12318;51.262;7.066;2023-03-29T15:36:34;4.45;;;1.25;;
24161;SDS011;12318;51.262;7.066;2023-03-29T15:39:13;4.07;;;1.27;;
24161;SDS011;12318;51.262;7.066;2023-03-29T15:41:41;4.47;;;1.50;;
24161;SDS011;12318;51.262;7.066;2023-03-29T15:44:08;10.13;;;1.65;;
24161;SDS011;12318;51.262;7.066;2023-03-29T15:46:35;5.00;;;1.42;;
24161;SDS011;12318;51.262;7.066;2023-03-29T15:49:00;5.72;;;1.60;;
24161;SDS011;12318;51.262;7.066;2023-03-29T15:51:27;4.07;;;1.60;;
24161;SDS011;12318;51.262;7.066;2023-03-29T15:53:52;5.93;;;1.65;;
24161;SDS011;12318;51.262;7.066;2023-03-29T15:56:19;4.28;;;1.65;;
24161;SDS011;12318;51.262;7.066;2023-03-29T15:58:47;4.30;;;1.58;;
24161;SDS011;12318;51.262;7.066;2023-03-29T16:06:30;7.03;;;1.85;;
24161;SDS011;12318;51.262;7.066;2023-03-29T16:08:58;6.90;;;1.60;;
24161;SDS011;12318;51.262;7.066;2023-03-29T16:11:24;5.20;;;1.63;;
24161;SDS011;12318;51.262;7.066;2023-03-29T16:13:53;4.75;;;1.63;;
24161;SDS011;12318;51.262;7.066;2023-03-29T16:16:28;7.05;;;1.77;;
24161;SDS011;12318;51.262;7.066;2023-03-29T16:18:54;4.82;;;1.63;;
24161;SDS011;12318;51.262;7.066;2023-03-29T16:21:20;6.82;;;1.60;;
24161;SDS011;12318;51.262;7.066;2023-03-29T16:23:47;4.45;;;1.83;;
24161;SDS011;12318;51.262;7.066;2023-03-29T16:26:13;3.28;;;1.50;;
24161;SDS011;12318;51.262;7.066;2023-03-29T16:28:40;2.92;;;1.40;;
24161;SDS011;12318;51.262;7.066;2023-03-29T16:31:10;3.13;;;1.48;;
24161;SDS011;12318;51.262;7.066;2023-03-29T16:33:37;5.10;;;1.50;;
24161;SDS011;12318;51.262;7.066;2023-03-29T16:36:03;3.25;;;1.30;;
24161;SDS011;12318;51.262;7.066;2023-03-29T16:38:30;8.65;;;1.52;;
24161;SDS011;12318;51.262;7.066;2023-03-29T16:40:57;5.05;;;1.55;;
24161;SDS011;12318;51.262;7.066;2023-03-29T16:43:24;5.32;;;1.70;;
24161;SDS011;12318;51.262;7.066;2023-03-29T16:45:50;8.18;;;1.58;;
24161;SDS011;12318;51.262;7.066;2023-03-29T16:48:16;5.10;;;1.70;;
24161;SDS011;12318;51.262;7.066;2023-03-29T16:50:43;7.93;;;1.70;;
24161;SDS011;12318;51.262;7.066;2023-03-29T16:53:12;3.67;;;1.60;;
24161;SDS011;12318;51.262;7.066;2023-03-29T16:55:38;3.58;;;1.55;;
24161;SDS011;12318;51.262;7.066;2023-03-29T16:58:04;4.72;;;1.80;;
24161;SDS011;12318;51.262;7.066;2023-03-29T17:00:30;3.78;;;1.48;;
24161;SDS011;12318;51.262;7.066;2023-03-29T17:02:57;3.60;;;1.67;;
24161;SDS011;12318;51.262;7.066;2023-03-29T17:05:26;3.78;;;1.60;;
24161;SDS011;12318;51.262;7.066;2023-03-29T17:07:52;4.10;;;1.63;;
24161;SDS011;12318;51.262;7.066;2023-03-29T17:10:19;4.90;;;1.90;;
24161;SDS011;12318;51.262;7.066;2023-03-29T17:12:46;6.88;;;1.88;;
24161;SDS011;12318;51.262;7.066;2023-03-29T17:15:12;6.43;;;1.88;;
24161;SDS011;12318;51.262;7.066;2023-03-29T17:17:38;9.48;;;1.75;;
24161;SDS011;12318;51.262;7.066;2023-03-29T17:20:05;3.88;;;1.73;;
24161;SDS011;12318;51.262;7.066;2023-03-29T17:22:34;5.97;;;1.70;;
24161;SDS011;12318;51.262;7.066;2023-03-29T17:25:00;6.35;;;1.90;;
24161;SDS011;12318;51.262;7.066;2023-03-29T17:27:28;5.43;;;1.95;;
24161;SDS011;12318;51.262;7.066;2023-03-29T17:29:54;3.70;;;1.83;;
24161;SDS011;12318;51.262;7.066;2023-03-29T17:32:19;3.13;;;1.60;;
24161;SDS011;12318;51.262;7.066;2023-03-29T17:34:45;3.65;;;1.35;;
24161;SDS011;12318;51.262;7.066;2023-03-29T17:37:12;7.43;;;2.30;;
24161;SDS011;12318;51.262;7.066;2023-03-29T17:39:38;9.13;;;2.08;;
24161;SDS011;12318;51.262;7.066;2023-03-29T17:42:05;4.43;;;1.90;;
24161;SDS011;12318;51.262;7.066;2023-03-29T17:44:32;6.68;;;1.95;;
24161;SDS011;12318;51.262;7.066;2023-03-29T17:46:58;5.70;;;2.15;;
24161;SDS011;12318;51.262;7.066;2023-03-29T17:49:24;4.45;;;2.03;;
24161;SDS011;12318;51.262;7.066;2023-03-29T17:51:50;3.67;;;2.03;;
24161;SDS011;12318;51.262;7.066;2023-03-29T17:54:16;7.03;;;2.08;;
24161;SDS011;12318;51.262;7.066;2023-03-29T17:56:41;4.85;;;1.98;;
24161;SDS011;12318;51.262;7.066;2023-03-29T17:59:07;3.75;;;1.77;;
24161;SDS011;12318;51.262;7.066;2023-03-29T18:01:33;5.47;;;1.92;;
24161;SDS011;12318;51.262;7.066;2023-03-29T18:03:59;4.45;;;2.03;;
24161;SDS011;12318;51.262;7.066;2023-03-29T18:06:25;8.73;;;2.00;;
24161;SDS011;12318;51.262;7.066;2023-03-29T18:08:51;6.18;;;2.00;;
24161;SDS011;12318;51.262;7.066;2023-03-29T18:11:21;4.30;;;1.80;;